• Join FlightAware (Why Join?)
  • Login
  • US Flag 
10:37PM EDT


 

Airport Tracker/Info


-or-


 

Live Flight TrackerFlight Track Log ✈ N129TT ✈ 26-Sep-2013 ✈ KRNH - CYQT

Flight Track Log - Related Links

Times and Time Zones

All times are in EDT time to prevent confusion due to time zone crossing. See the N129TT flight status page for this flight to view local times or setup timezone preferences in your user account.

Time Position Orientation Groundspeed Altitude Reporting Facility
EDT Latitude Longitude Course Direction KTS MPH feet Rate Location/Type
09:26AM 45.1861 -92.4797 35° Northeast 144 166 5,300  Level Minneapolis Center
09:27AM 45.2233 -92.4503 29° Northeast 152 175 7,000 1,140 Climbing Minneapolis Center
09:28AM 45.2800 -92.4078 28° Northeast 230 265 7,700 1,260 Climbing Minneapolis Center
09:29AM 45.3392 -92.3622 28° Northeast 225 259 9,700 1,620 Climbing Minneapolis Center
09:30AM 45.3903 -92.3300 24° Northeast 213 245 11,100 1,260 Climbing Minneapolis Center
09:31AM 45.4444 -92.2889 28° Northeast 220 253 12,400 1,260 Climbing Minneapolis Center
09:32AM 45.4311 -92.2749 35° Northeast  Level Estimated
09:32AM 45.4978 -92.2439 31° Northeast 225 259 13,700  Level Minneapolis Center
09:33AM 45.5500 -92.1953 33° Northeast 224 258 15,000 660 Climbing Minneapolis Center
09:34AM 45.6028 -92.1411 36° Northeast 229 264 15,100  Climbing Minneapolis Center
09:36AM 45.6808 -92.0703 32° Northeast 274 315 15,000 -60 Descending Minneapolis Center
09:37AM 45.7461 -92.0075 34° Northeast 281 323 15,000  Level Minneapolis Center
09:38AM 45.8136 -91.9414 34° Northeast 281 323 15,000  Level Minneapolis Center
09:39AM 45.8789 -91.8781 34° Northeast 283 326 15,000  Level Minneapolis Center
09:40AM 45.9453 -91.8156 33° Northeast 284 327 15,000  Level Minneapolis Center
09:41AM 46.0097 -91.7514 35° Northeast 283 326 15,000  Level Minneapolis Center
09:42AM 46.0756 -91.6878 34° Northeast 284 327 15,000  Level Minneapolis Center
09:43AM 46.1411 -91.6219 35° Northeast 285 328 15,000  Level Minneapolis Center
09:44AM 46.2197 -91.5442 34° Northeast 286 329 15,000  Level Minneapolis Center
09:45AM 46.2861 -91.4786 34° Northeast 287 330 15,000  Level Minneapolis Center
09:46AM 46.3525 -91.4142 34° Northeast 287 330 15,000  Level Minneapolis Center
09:47AM 46.4178 -91.3497 34° Northeast 287 330 15,000  Level Minneapolis Center
09:48AM 46.4847 -91.2831 34° Northeast 288 331 15,000  Level Minneapolis Center
09:49AM 46.5489 -91.2214 33° Northeast 283 326 15,000  Level Minneapolis Center
09:50AM 46.6147 -91.1542 35° Northeast 285 328 15,000  Level Minneapolis Center
09:51AM 46.6800 -91.0892 34° Northeast 285 328 15,000  Level Minneapolis Center
09:52AM 46.7581 -91.0103 35° Northeast 285 328 15,000  Level Minneapolis Center
09:53AM 46.8219 -90.9453 35° Northeast 282 325 15,000  Level Minneapolis Center
09:54AM 46.8864 -90.8803 35° Northeast 281 323 15,000  Level Minneapolis Center
09:55AM 46.9506 -90.8144 35° Northeast 281 323 15,000  Level Minneapolis Center
09:56AM 47.0064 -90.7578 35° Northeast 281 323 15,000  Level Minneapolis Center
09:57AM 47.0822 -90.6808 35° Northeast 278 320 15,000  Level Minneapolis Center
09:58AM 47.1444 -90.6172 35° Northeast 277 319 15,000  Level Minneapolis Center
09:59AM 47.2067 -90.5519 35° Northeast 276 318 15,000 -300 Level Minneapolis Center
10:00AM 47.2700 -90.4869 35° Northeast 276 318 14,400 -540 Descending Minneapolis Center
10:01AM 47.3367 -90.4183 35° Northeast 286 329 14,000 -480 Descending Minneapolis Center
10:02AM 47.4153 -90.3358 35° Northeast 289 333 13,500 -480 Descending Minneapolis Center
10:03AM 47.4806 -90.2686 35° Northeast 288 331 13,100 -480 Descending Minneapolis Center
10:04AM 47.5444 -90.2019 35° Northeast 290 334 12,600 -540 Descending Minneapolis Center
10:05AM 47.6086 -90.1347 35° Northeast 285 328 12,100 -780 Descending Minneapolis Center
10:06AM 47.6739 -90.0689 34° Northeast 284 327 11,100 -1,020 Descending Minneapolis Center
10:07AM 47.7586 -89.9922 31° Northeast 291 335 10,000 -1,500 Descending Minneapolis Center
10:08AM 47.8314 -89.9344 28° Northeast 295 339 8,000 -1,860 Descending Minneapolis Center
10:09AM 47.9156 -89.8761 25° Northeast 303 349 6,300 -2,040 Descending Minneapolis Center
10:11AM 47.9500 -89.7667 65° Northeast 290 334 3,900 -1,200 Descending Winnipeg Center
10:12AM 48.0333 -89.7333 15° North 260 299 3,900 -300 Level Winnipeg Center
10:13AM 48.1000 -89.6833 27° Northeast 260 299 3,400 -300 Descending Winnipeg Center
10:14AM 48.1500 -89.6500 24° Northeast 250 288 3,300 -120 Descending Winnipeg Center
10:15AM 48.2167 -89.5833 34° Northeast 250 288 3,200 -60 Descending Winnipeg Center
10:16AM 48.2833 -89.5500 18° North 250 288 3,200  Level Winnipeg Center
10:17AM 48.3000 -89.4667 73° East 200 230 3,200 -600 Level Winnipeg Center
10:18AM 48.3333 -89.3833 59° Northeast 170 196 2,100 -960 Descending Winnipeg Center
10:19AM 48.3500 -89.3333 63° Northeast 130 150 1,300 -720 Descending Winnipeg Center
10:20AM 48.3500 -89.2833 90° East 110 127 700 -360 Descending Winnipeg Center
10:21AM 48.3500 -89.2667 90° East 40 46 600 -60 Descending Winnipeg Center
10:22AM 48.3667 -89.2833 326° Northwest 10 12 600  Level Winnipeg Center